sensor_id;sensor_type;location;lat;lon;timestamp;P1;durP1;ratioP1;P2;durP2;ratioP2
6145;SDS011;3104;50.348;7.620;2023-08-31T00:00:28;6.17;;;4.97;;
6145;SDS011;3104;50.348;7.620;2023-08-31T00:02:56;4.63;;;4.30;;
6145;SDS011;3104;50.348;7.620;2023-08-31T00:05:22;5.47;;;4.93;;
6145;SDS011;3104;50.348;7.620;2023-08-31T00:07:49;6.20;;;5.60;;
6145;SDS011;3104;50.348;7.620;2023-08-31T00:10:16;8.40;;;4.00;;
6145;SDS011;3104;50.348;7.620;2023-08-31T00:12:42;5.83;;;4.50;;
6145;SDS011;3104;50.348;7.620;2023-08-31T00:15:08;5.57;;;5.10;;
6145;SDS011;3104;50.348;7.620;2023-08-31T00:17:34;5.40;;;4.90;;
6145;SDS011;3104;50.348;7.620;2023-08-31T00:20:00;5.03;;;4.63;;
6145;SDS011;3104;50.348;7.620;2023-08-31T00:22:26;5.53;;;4.93;;
6145;SDS011;3104;50.348;7.620;2023-08-31T00:24:51;5.20;;;4.80;;
6145;SDS011;3104;50.348;7.620;2023-08-31T00:27:17;6.57;;;5.97;;
6145;SDS011;3104;50.348;7.620;2023-08-31T00:29:43;6.50;;;5.50;;
6145;SDS011;3104;50.348;7.620;2023-08-31T00:32:14;6.50;;;5.87;;
6145;SDS011;3104;50.348;7.620;2023-08-31T00:34:40;6.63;;;6.00;;
6145;SDS011;3104;50.348;7.620;2023-08-31T00:37:06;8.13;;;7.00;;
6145;SDS011;3104;50.348;7.620;2023-08-31T00:39:31;8.13;;;7.33;;
6145;SDS011;3104;50.348;7.620;2023-08-31T00:41:58;6.57;;;5.97;;
6145;SDS011;3104;50.348;7.620;2023-08-31T00:44:24;6.20;;;5.80;;
6145;SDS011;3104;50.348;7.620;2023-08-31T00:46:49;8.80;;;6.50;;
6145;SDS011;3104;50.348;7.620;2023-08-31T00:49:15;8.00;;;6.13;;
6145;SDS011;3104;50.348;7.620;2023-08-31T00:51:42;7.43;;;6.73;;
6145;SDS011;3104;50.348;7.620;2023-08-31T00:54:13;6.03;;;5.43;;
6145;SDS011;3104;50.348;7.620;2023-08-31T00:56:41;6.67;;;6.07;;
6145;SDS011;3104;50.348;7.620;2023-08-31T00:59:06;6.57;;;6.07;;
6145;SDS011;3104;50.348;7.620;2023-08-31T01:04:21;7.53;;;6.00;;
6145;SDS011;3104;50.348;7.620;2023-08-31T01:12:28;5.67;;;5.20;;
6145;SDS011;3104;50.348;7.620;2023-08-31T01:15:02;6.27;;;5.60;;
6145;SDS011;3104;50.348;7.620;2023-08-31T01:17:33;6.80;;;6.20;;
6145;SDS011;3104;50.348;7.620;2023-08-31T01:20:07;6.67;;;6.07;;
6145;SDS011;3104;50.348;7.620;2023-08-31T01:22:46;6.37;;;5.87;;
6145;SDS011;3104;50.348;7.620;2023-08-31T01:25:20;5.90;;;5.40;;
6145;SDS011;3104;50.348;7.620;2023-08-31T01:27:46;6.80;;;6.10;;
6145;SDS011;3104;50.348;7.620;2023-08-31T01:30:12;8.47;;;6.50;;
6145;SDS011;3104;50.348;7.620;2023-08-31T01:32:38;6.40;;;5.63;;
6145;SDS011;3104;50.348;7.620;2023-08-31T01:35:10;7.20;;;6.47;;
6145;SDS011;3104;50.348;7.620;2023-08-31T01:37:47;7.13;;;6.53;;
6145;SDS011;3104;50.348;7.620;2023-08-31T01:43:14;7.80;;;5.03;;
6145;SDS011;3104;50.348;7.620;2023-08-31T01:45:42;9.07;;;6.17;;
6145;SDS011;3104;50.348;7.620;2023-08-31T01:48:08;7.33;;;6.00;;
6145;SDS011;3104;50.348;7.620;2023-08-31T01:50:34;6.73;;;6.13;;
6145;SDS011;3104;50.348;7.620;2023-08-31T01:53:00;7.13;;;6.00;;
6145;SDS011;3104;50.348;7.620;2023-08-31T01:55:26;5.70;;;5.23;;
6145;SDS011;3104;50.348;7.620;2023-08-31T01:57:51;6.00;;;5.27;;
6145;SDS011;3104;50.348;7.620;2023-08-31T02:00:17;6.30;;;5.40;;
6145;SDS011;3104;50.348;7.620;2023-08-31T02:02:44;6.63;;;5.97;;
6145;SDS011;3104;50.348;7.620;2023-08-31T02:05:09;7.03;;;6.43;;
6145;SDS011;3104;50.348;7.620;2023-08-31T02:07:35;7.60;;;5.53;;
6145;SDS011;3104;50.348;7.620;2023-08-31T02:10:02;6.23;;;5.63;;
6145;SDS011;3104;50.348;7.620;2023-08-31T02:12:31;5.80;;;5.40;;
6145;SDS011;3104;50.348;7.620;2023-08-31T02:14:57;6.33;;;5.83;;
6145;SDS011;3104;50.348;7.620;2023-08-31T02:17:22;6.90;;;6.27;;
6145;SDS011;3104;50.348;7.620;2023-08-31T02:19:48;6.57;;;5.37;;
6145;SDS011;3104;50.348;7.620;2023-08-31T02:22:13;5.63;;;5.10;;
6145;SDS011;3104;50.348;7.620;2023-08-31T02:24:39;6.07;;;5.57;;
6145;SDS011;3104;50.348;7.620;2023-08-31T02:27:04;5.73;;;5.03;;
6145;SDS011;3104;50.348;7.620;2023-08-31T02:29:30;6.10;;;4.90;;
6145;SDS011;3104;50.348;7.620;2023-08-31T02:31:56;6.30;;;5.50;;
6145;SDS011;3104;50.348;7.620;2023-08-31T02:34:21;6.57;;;5.93;;
6145;SDS011;3104;50.348;7.620;2023-08-31T02:36:47;6.63;;;6.03;;
6145;SDS011;3104;50.348;7.620;2023-08-31T02:39:12;5.40;;;4.97;;
6145;SDS011;3104;50.348;7.620;2023-08-31T02:41:38;6.37;;;5.77;;
6145;SDS011;3104;50.348;7.620;2023-08-31T02:44:04;5.50;;;5.10;;
6145;SDS011;3104;50.348;7.620;2023-08-31T02:46:30;5.80;;;4.70;;
6145;SDS011;3104;50.348;7.620;2023-08-31T02:48:56;4.90;;;4.50;;
6145;SDS011;3104;50.348;7.620;2023-08-31T02:51:21;7.53;;;6.00;;
6145;SDS011;3104;50.348;7.620;2023-08-31T02:53:47;5.00;;;4.60;;
6145;SDS011;3104;50.348;7.620;2023-08-31T02:56:13;5.13;;;4.63;;
6145;SDS011;3104;50.348;7.620;2023-08-31T02:58:39;7.70;;;6.00;;
6145;SDS011;3104;50.348;7.620;2023-08-31T03:01:11;10.00;;;7.47;;
6145;SDS011;3104;50.348;7.620;2023-08-31T03:03:38;5.20;;;4.43;;
6145;SDS011;3104;50.348;7.620;2023-08-31T03:06:05;6.07;;;5.47;;
6145;SDS011;3104;50.348;7.620;2023-08-31T03:08:37;5.93;;;5.40;;
6145;SDS011;3104;50.348;7.620;2023-08-31T03:11:03;4.93;;;4.53;;
6145;SDS011;3104;50.348;7.620;2023-08-31T03:13:33;7.40;;;5.27;;
6145;SDS011;3104;50.348;7.620;2023-08-31T03:15:59;5.97;;;5.33;;
6145;SDS011;3104;50.348;7.620;2023-08-31T03:18:25;6.10;;;4.87;;
6145;SDS011;3104;50.348;7.620;2023-08-31T03:20:50;9.83;;;4.30;;
6145;SDS011;3104;50.348;7.620;2023-08-31T03:23:16;4.20;;;3.90;;
6145;SDS011;3104;50.348;7.620;2023-08-31T03:25:42;7.00;;;3.90;;
6145;SDS011;3104;50.348;7.620;2023-08-31T03:28:08;4.73;;;4.33;;
6145;SDS011;3104;50.348;7.620;2023-08-31T03:30:34;4.70;;;4.20;;
6145;SDS011;3104;50.348;7.620;2023-08-31T03:33:00;4.40;;;4.00;;
6145;SDS011;3104;50.348;7.620;2023-08-31T03:35:25;3.83;;;3.43;;
6145;SDS011;3104;50.348;7.620;2023-08-31T03:37:55;6.60;;;4.60;;
6145;SDS011;3104;50.348;7.620;2023-08-31T03:40:21;4.30;;;3.90;;
6145;SDS011;3104;50.348;7.620;2023-08-31T03:42:50;4.80;;;4.17;;
6145;SDS011;3104;50.348;7.620;2023-08-31T03:45:17;6.60;;;4.23;;
6145;SDS011;3104;50.348;7.620;2023-08-31T03:47:43;5.00;;;3.83;;
6145;SDS011;3104;50.348;7.620;2023-08-31T03:50:09;5.80;;;4.47;;
6145;SDS011;3104;50.348;7.620;2023-08-31T03:52:35;4.33;;;3.90;;
6145;SDS011;3104;50.348;7.620;2023-08-31T03:55:00;9.80;;;4.40;;
6145;SDS011;3104;50.348;7.620;2023-08-31T03:57:26;7.37;;;6.27;;
6145;SDS011;3104;50.348;7.620;2023-08-31T03:59:51;6.97;;;4.47;;
6145;SDS011;3104;50.348;7.620;2023-08-31T04:02:17;4.00;;;3.70;;
6145;SDS011;3104;50.348;7.620;2023-08-31T04:04:42;10.30;;;5.63;;
6145;SDS011;3104;50.348;7.620;2023-08-31T04:07:08;4.83;;;4.37;;
6145;SDS011;3104;50.348;7.620;2023-08-31T04:09:34;4.57;;;4.17;;
6145;SDS011;3104;50.348;7.620;2023-08-31T04:11:59;6.40;;;4.77;;
6145;SDS011;3104;50.348;7.620;2023-08-31T04:14:28;5.00;;;4.17;;
6145;SDS011;3104;50.348;7.620;2023-08-31T04:16:54;5.03;;;4.00;;
6145;SDS011;3104;50.348;7.620;2023-08-31T04:19:20;6.60;;;4.70;;
6145;SDS011;3104;50.348;7.620;2023-08-31T04:21:46;5.03;;;4.63;;
6145;SDS011;3104;50.348;7.620;2023-08-31T04:24:12;4.87;;;4.13;;
6145;SDS011;3104;50.348;7.620;2023-08-31T04:26:38;5.70;;;5.13;;
6145;SDS011;3104;50.348;7.620;2023-08-31T04:29:04;6.60;;;4.77;;
6145;SDS011;3104;50.348;7.620;2023-08-31T04:31:30;6.80;;;6.10;;
6145;SDS011;3104;50.348;7.620;2023-08-31T04:33:56;5.20;;;4.70;;
6145;SDS011;3104;50.348;7.620;2023-08-31T04:36:22;5.93;;;5.40;;
6145;SDS011;3104;50.348;7.620;2023-08-31T04:38:51;4.63;;;4.23;;
6145;SDS011;3104;50.348;7.620;2023-08-31T04:41:16;9.90;;;5.00;;
6145;SDS011;3104;50.348;7.620;2023-08-31T04:43:42;6.30;;;4.73;;
6145;SDS011;3104;50.348;7.620;2023-08-31T04:46:08;5.30;;;4.80;;
6145;SDS011;3104;50.348;7.620;2023-08-31T04:48:34;6.50;;;6.00;;
6145;SDS011;3104;50.348;7.620;2023-08-31T04:51:01;5.80;;;4.40;;
6145;SDS011;3104;50.348;7.620;2023-08-31T04:53:28;5.87;;;4.37;;
6145;SDS011;3104;50.348;7.620;2023-08-31T04:55:55;5.67;;;5.20;;
6145;SDS011;3104;50.348;7.620;2023-08-31T04:58:20;12.37;;;7.00;;
6145;SDS011;3104;50.348;7.620;2023-08-31T05:00:46;6.53;;;5.63;;
6145;SDS011;3104;50.348;7.620;2023-08-31T05:03:12;5.10;;;4.80;;
6145;SDS011;3104;50.348;7.620;2023-08-31T05:05:38;13.03;;;4.67;;
6145;SDS011;3104;50.348;7.620;2023-08-31T05:08:04;5.60;;;4.90;;
6145;SDS011;3104;50.348;7.620;2023-08-31T05:10:30;5.73;;;4.87;;
6145;SDS011;3104;50.348;7.620;2023-08-31T05:12:56;8.87;;;5.50;;
6145;SDS011;3104;50.348;7.620;2023-08-31T05:15:22;6.43;;;4.50;;
6145;SDS011;3104;50.348;7.620;2023-08-31T05:17:48;5.13;;;4.63;;
6145;SDS011;3104;50.348;7.620;2023-08-31T05:20:13;5.93;;;4.53;;
6145;SDS011;3104;50.348;7.620;2023-08-31T05:22:39;4.00;;;3.60;;
6145;SDS011;3104;50.348;7.620;2023-08-31T05:25:05;7.77;;;4.57;;
6145;SDS011;3104;50.348;7.620;2023-08-31T05:27:31;6.00;;;4.50;;
6145;SDS011;3104;50.348;7.620;2023-08-31T05:29:56;6.40;;;4.53;;
6145;SDS011;3104;50.348;7.620;2023-08-31T05:32:22;4.57;;;4.03;;
6145;SDS011;3104;50.348;7.620;2023-08-31T05:34:47;5.73;;;4.30;;
6145;SDS011;3104;50.348;7.620;2023-08-31T05:37:13;4.63;;;4.03;;
6145;SDS011;3104;50.348;7.620;2023-08-31T05:39:39;4.40;;;4.00;;
6145;SDS011;3104;50.348;7.620;2023-08-31T05:42:05;4.53;;;4.13;;
6145;SDS011;3104;50.348;7.620;2023-08-31T05:44:30;7.10;;;4.13;;
6145;SDS011;3104;50.348;7.620;2023-08-31T05:46:56;6.97;;;4.50;;
6145;SDS011;3104;50.348;7.620;2023-08-31T05:49:22;4.73;;;4.00;;
6145;SDS011;3104;50.348;7.620;2023-08-31T05:51:48;4.80;;;4.30;;
6145;SDS011;3104;50.348;7.620;2023-08-31T05:54:14;5.63;;;3.73;;
6145;SDS011;3104;50.348;7.620;2023-08-31T05:56:40;4.10;;;3.70;;
6145;SDS011;3104;50.348;7.620;2023-08-31T05:59:06;4.37;;;4.07;;
6145;SDS011;3104;50.348;7.620;2023-08-31T06:01:32;5.03;;;4.50;;
6145;SDS011;3104;50.348;7.620;2023-08-31T06:03:57;6.43;;;3.80;;
6145;SDS011;3104;50.348;7.620;2023-08-31T06:06:23;5.30;;;3.93;;
6145;SDS011;3104;50.348;7.620;2023-08-31T06:08:49;4.40;;;3.10;;
6145;SDS011;3104;50.348;7.620;2023-08-31T06:11:15;4.10;;;3.50;;
6145;SDS011;3104;50.348;7.620;2023-08-31T06:13:40;5.73;;;3.40;;
6145;SDS011;3104;50.348;7.620;2023-08-31T06:16:06;5.23;;;3.80;;
6145;SDS011;3104;50.348;7.620;2023-08-31T06:18:32;6.23;;;5.77;;
6145;SDS011;3104;50.348;7.620;2023-08-31T06:20:57;6.63;;;3.90;;
6145;SDS011;3104;50.348;7.620;2023-08-31T06:23:23;5.43;;;4.00;;
6145;SDS011;3104;50.348;7.620;2023-08-31T06:25:49;4.43;;;3.50;;
6145;SDS011;3104;50.348;7.620;2023-08-31T06:28:14;5.50;;;3.20;;
6145;SDS011;3104;50.348;7.620;2023-08-31T06:30:41;4.93;;;3.17;;
6145;SDS011;3104;50.348;7.620;2023-08-31T06:33:11;4.93;;;3.33;;
6145;SDS011;3104;50.348;7.620;2023-08-31T06:35:38;6.27;;;2.57;;
6145;SDS011;3104;50.348;7.620;2023-08-31T06:38:03;6.10;;;3.17;;
6145;SDS011;3104;50.348;7.620;2023-08-31T06:40:29;5.73;;;4.10;;
6145;SDS011;3104;50.348;7.620;2023-08-31T06:42:55;4.93;;;3.00;;
6145;SDS011;3104;50.348;7.620;2023-08-31T06:45:20;4.73;;;3.13;;
6145;SDS011;3104;50.348;7.620;2023-08-31T06:47:46;5.43;;;3.13;;
6145;SDS011;3104;50.348;7.620;2023-08-31T06:50:12;6.10;;;3.80;;
6145;SDS011;3104;50.348;7.620;2023-08-31T06:52:37;3.13;;;2.83;;
6145;SDS011;3104;50.348;7.620;2023-08-31T06:55:03;4.40;;;3.87;;
6145;SDS011;3104;50.348;7.620;2023-08-31T06:57:31;5.37;;;2.50;;
6145;SDS011;3104;50.348;7.620;2023-08-31T06:59:56;3.43;;;3.17;;
6145;SDS011;3104;50.348;7.620;2023-08-31T07:02:22;5.83;;;3.00;;
6145;SDS011;3104;50.348;7.620;2023-08-31T07:04:49;3.80;;;3.33;;
6145;SDS011;3104;50.348;7.620;2023-08-31T07:07:17;3.60;;;3.30;;
6145;SDS011;3104;50.348;7.620;2023-08-31T07:09:43;3.00;;;2.70;;
6145;SDS011;3104;50.348;7.620;2023-08-31T07:12:09;4.23;;;3.20;;
6145;SDS011;3104;50.348;7.620;2023-08-31T07:14:35;6.20;;;3.70;;
6145;SDS011;3104;50.348;7.620;2023-08-31T07:17:01;3.90;;;2.97;;
6145;SDS011;3104;50.348;7.620;2023-08-31T07:19:26;3.50;;;3.20;;
6145;SDS011;3104;50.348;7.620;2023-08-31T07:21:52;3.40;;;2.87;;
6145;SDS011;3104;50.348;7.620;2023-08-31T07:24:19;3.53;;;2.97;;
6145;SDS011;3104;50.348;7.620;2023-08-31T07:26:46;4.20;;;2.80;;
6145;SDS011;3104;50.348;7.620;2023-08-31T07:29:12;4.83;;;3.10;;
6145;SDS011;3104;50.348;7.620;2023-08-31T07:31:39;4.20;;;3.27;;
6145;SDS011;3104;50.348;7.620;2023-08-31T07:34:05;5.80;;;4.20;;
6145;SDS011;3104;50.348;7.620;2023-08-31T07:36:31;4.10;;;3.70;;
6145;SDS011;3104;50.348;7.620;2023-08-31T07:38:56;3.00;;;2.23;;
6145;SDS011;3104;50.348;7.620;2023-08-31T07:41:22;2.80;;;2.60;;
6145;SDS011;3104;50.348;7.620;2023-08-31T07:43:48;4.10;;;2.80;;
6145;SDS011;3104;50.348;7.620;2023-08-31T07:46:14;4.20;;;2.87;;
6145;SDS011;3104;50.348;7.620;2023-08-31T07:48:41;9.70;;;8.03;;
6145;SDS011;3104;50.348;7.620;2023-08-31T07:51:07;4.63;;;2.50;;
6145;SDS011;3104;50.348;7.620;2023-08-31T07:53:33;4.40;;;3.30;;
6145;SDS011;3104;50.348;7.620;2023-08-31T07:55:59;3.73;;;2.60;;
6145;SDS011;3104;50.348;7.620;2023-08-31T07:58:25;7.20;;;3.03;;
6145;SDS011;3104;50.348;7.620;2023-08-31T08:00:55;4.60;;;3.30;;
6145;SDS011;3104;50.348;7.620;2023-08-31T08:03:24;4.23;;;3.83;;
6145;SDS011;3104;50.348;7.620;2023-08-31T08:05:50;3.70;;;2.67;;
6145;SDS011;3104;50.348;7.620;2023-08-31T08:08:16;7.70;;;3.20;;
6145;SDS011;3104;50.348;7.620;2023-08-31T08:10:42;3.97;;;2.80;;
6145;SDS011;3104;50.348;7.620;2023-08-31T08:13:08;4.33;;;2.63;;
6145;SDS011;3104;50.348;7.620;2023-08-31T08:15:34;3.80;;;2.40;;
6145;SDS011;3104;50.348;7.620;2023-08-31T08:18:00;4.23;;;2.90;;
6145;SDS011;3104;50.348;7.620;2023-08-31T08:20:26;3.10;;;2.87;;
6145;SDS011;3104;50.348;7.620;2023-08-31T08:22:53;4.50;;;3.10;;
6145;SDS011;3104;50.348;7.620;2023-08-31T08:25:19;2.77;;;2.57;;
6145;SDS011;3104;50.348;7.620;2023-08-31T08:27:45;7.90;;;3.03;;
6145;SDS011;3104;50.348;7.620;2023-08-31T08:30:11;4.40;;;4.00;;
6145;SDS011;3104;50.348;7.620;2023-08-31T08:32:37;5.90;;;2.87;;
6145;SDS011;3104;50.348;7.620;2023-08-31T08:35:02;4.03;;;2.70;;
6145;SDS011;3104;50.348;7.620;2023-08-31T08:37:28;3.70;;;3.00;;
6145;SDS011;3104;50.348;7.620;2023-08-31T08:39:54;3.43;;;3.00;;
6145;SDS011;3104;50.348;7.620;2023-08-31T08:42:20;3.70;;;3.37;;
6145;SDS011;3104;50.348;7.620;2023-08-31T08:44:50;5.10;;;3.30;;
6145;SDS011;3104;50.348;7.620;2023-08-31T08:47:16;2.50;;;2.30;;
6145;SDS011;3104;50.348;7.620;2023-08-31T08:49:43;4.63;;;3.37;;
6145;SDS011;3104;50.348;7.620;2023-08-31T08:52:09;3.00;;;2.70;;
6145;SDS011;3104;50.348;7.620;2023-08-31T08:54:37;3.67;;;2.60;;
6145;SDS011;3104;50.348;7.620;2023-08-31T08:57:03;4.40;;;2.60;;
6145;SDS011;3104;50.348;7.620;2023-08-31T08:59:30;4.80;;;3.13;;
6145;SDS011;3104;50.348;7.620;2023-08-31T09:01:55;8.30;;;2.70;;
6145;SDS011;3104;50.348;7.620;2023-08-31T09:04:21;2.80;;;2.60;;
6145;SDS011;3104;50.348;7.620;2023-08-31T09:06:47;3.30;;;2.57;;
6145;SDS011;3104;50.348;7.620;2023-08-31T09:09:13;5.90;;;2.90;;
6145;SDS011;3104;50.348;7.620;2023-08-31T09:11:38;3.57;;;2.73;;
6145;SDS011;3104;50.348;7.620;2023-08-31T09:16:59;5.67;;;4.00;;
6145;SDS011;3104;50.348;7.620;2023-08-31T09:19:25;7.03;;;3.23;;
6145;SDS011;3104;50.348;7.620;2023-08-31T09:21:55;4.00;;;2.90;;
6145;SDS011;3104;50.348;7.620;2023-08-31T09:24:21;3.63;;;3.33;;
6145;SDS011;3104;50.348;7.620;2023-08-31T09:26:49;5.40;;;2.77;;
6145;SDS011;3104;50.348;7.620;2023-08-31T09:29:20;6.33;;;3.50;;
6145;SDS011;3104;50.348;7.620;2023-08-31T09:31:46;3.33;;;3.03;;
6145;SDS011;3104;50.348;7.620;2023-08-31T09:34:13;4.13;;;2.53;;
6145;SDS011;3104;50.348;7.620;2023-08-31T09:36:39;5.87;;;3.47;;
6145;SDS011;3104;50.348;7.620;2023-08-31T09:39:06;4.70;;;3.47;;
6145;SDS011;3104;50.348;7.620;2023-08-31T09:41:32;4.27;;;2.90;;
6145;SDS011;3104;50.348;7.620;2023-08-31T09:44:16;7.17;;;2.60;;
6145;SDS011;3104;50.348;7.620;2023-08-31T09:46:43;4.40;;;2.67;;
6145;SDS011;3104;50.348;7.620;2023-08-31T09:49:10;3.50;;;2.70;;
6145;SDS011;3104;50.348;7.620;2023-08-31T09:51:41;3.10;;;2.90;;
6145;SDS011;3104;50.348;7.620;2023-08-31T09:54:14;5.40;;;3.40;;
6145;SDS011;3104;50.348;7.620;2023-08-31T09:56:44;3.63;;;2.40;;
6145;SDS011;3104;50.348;7.620;2023-08-31T09:59:11;3.17;;;2.87;;
6145;SDS011;3104;50.348;7.620;2023-08-31T10:01:42;2.93;;;2.70;;
6145;SDS011;3104;50.348;7.620;2023-08-31T10:04:10;4.80;;;2.27;;
6145;SDS011;3104;50.348;7.620;2023-08-31T10:06:41;3.87;;;2.67;;
6145;SDS011;3104;50.348;7.620;2023-08-31T10:09:08;4.90;;;2.67;;
6145;SDS011;3104;50.348;7.620;2023-08-31T10:11:34;3.70;;;3.33;;
6145;SDS011;3104;50.348;7.620;2023-08-31T10:14:02;5.20;;;3.27;;
6145;SDS011;3104;50.348;7.620;2023-08-31T10:16:29;4.40;;;3.13;;
6145;SDS011;3104;50.348;7.620;2023-08-31T10:18:55;2.87;;;2.60;;
6145;SDS011;3104;50.348;7.620;2023-08-31T10:21:21;2.83;;;2.63;;
6145;SDS011;3104;50.348;7.620;2023-08-31T10:23:48;3.50;;;2.23;;
6145;SDS011;3104;50.348;7.620;2023-08-31T10:26:24;3.50;;;2.40;;
6145;SDS011;3104;50.348;7.620;2023-08-31T10:28:51;2.93;;;2.50;;
6145;SDS011;3104;50.348;7.620;2023-08-31T10:31:17;3.67;;;2.87;;
6145;SDS011;3104;50.348;7.620;2023-08-31T10:33:45;2.33;;;2.10;;
6145;SDS011;3104;50.348;7.620;2023-08-31T10:36:12;3.30;;;3.10;;
6145;SDS011;3104;50.348;7.620;2023-08-31T10:38:44;2.80;;;2.60;;
6145;SDS011;3104;50.348;7.620;2023-08-31T10:41:22;2.80;;;2.43;;
6145;SDS011;3104;50.348;7.620;2023-08-31T10:43:49;4.83;;;2.13;;
6145;SDS011;3104;50.348;7.620;2023-08-31T10:49:00;3.63;;;2.20;;
6145;SDS011;3104;50.348;7.620;2023-08-31T10:51:39;3.27;;;2.97;;
6145;SDS011;3104;50.348;7.620;2023-08-31T10:59:18;5.07;;;2.40;;
6145;SDS011;3104;50.348;7.620;2023-08-31T11:01:57;3.90;;;2.50;;
6145;SDS011;3104;50.348;7.620;2023-08-31T11:04:30;4.10;;;2.03;;
6145;SDS011;3104;50.348;7.620;2023-08-31T11:07:19;3.33;;;2.63;;
6145;SDS011;3104;50.348;7.620;2023-08-31T11:09:49;2.87;;;2.13;;
6145;SDS011;3104;50.348;7.620;2023-08-31T11:12:14;4.50;;;2.67;;
6145;SDS011;3104;50.348;7.620;2023-08-31T11:14:40;2.30;;;2.10;;
6145;SDS011;3104;50.348;7.620;2023-08-31T11:17:06;2.70;;;2.40;;
6145;SDS011;3104;50.348;7.620;2023-08-31T11:19:33;2.90;;;2.37;;
6145;SDS011;3104;50.348;7.620;2023-08-31T11:22:02;2.30;;;2.10;;
6145;SDS011;3104;50.348;7.620;2023-08-31T11:24:29;4.83;;;2.20;;
6145;SDS011;3104;50.348;7.620;2023-08-31T11:26:56;3.57;;;2.67;;
6145;SDS011;3104;50.348;7.620;2023-08-31T11:29:22;5.67;;;2.50;;
6145;SDS011;3104;50.348;7.620;2023-08-31T11:31:48;3.87;;;2.60;;
6145;SDS011;3104;50.348;7.620;2023-08-31T11:34:14;2.57;;;2.37;;
6145;SDS011;3104;50.348;7.620;2023-08-31T11:36:41;2.43;;;2.23;;
6145;SDS011;3104;50.348;7.620;2023-08-31T11:39:08;2.77;;;2.20;;
6145;SDS011;3104;50.348;7.620;2023-08-31T11:41:35;2.37;;;1.93;;
6145;SDS011;3104;50.348;7.620;2023-08-31T11:44:05;2.20;;;1.87;;
6145;SDS011;3104;50.348;7.620;2023-08-31T11:46:32;3.70;;;2.33;;
6145;SDS011;3104;50.348;7.620;2023-08-31T11:48:59;3.07;;;2.23;;
6145;SDS011;3104;50.348;7.620;2023-08-31T11:51:25;6.90;;;4.43;;
6145;SDS011;3104;50.348;7.620;2023-08-31T11:53:54;2.57;;;2.30;;
6145;SDS011;3104;50.348;7.620;2023-08-31T11:56:21;3.00;;;1.90;;
6145;SDS011;3104;50.348;7.620;2023-08-31T11:58:46;2.63;;;2.43;;
6145;SDS011;3104;50.348;7.620;2023-08-31T12:01:22;4.37;;;2.20;;
6145;SDS011;3104;50.348;7.620;2023-08-31T12:03:48;3.83;;;2.40;;
6145;SDS011;3104;50.348;7.620;2023-08-31T12:06:15;2.80;;;2.10;;
6145;SDS011;3104;50.348;7.620;2023-08-31T12:08:43;6.00;;;2.10;;
6145;SDS011;3104;50.348;7.620;2023-08-31T12:11:09;4.73;;;2.57;;
6145;SDS011;3104;50.348;7.620;2023-08-31T12:13:35;2.87;;;2.60;;
6145;SDS011;3104;50.348;7.620;2023-08-31T12:16:00;4.10;;;2.33;;
6145;SDS011;3104;50.348;7.620;2023-08-31T12:18:32;2.80;;;2.20;;
6145;SDS011;3104;50.348;7.620;2023-08-31T12:21:02;3.20;;;2.60;;
6145;SDS011;3104;50.348;7.620;2023-08-31T12:23:29;3.70;;;2.30;;
6145;SDS011;3104;50.348;7.620;2023-08-31T12:25:55;2.20;;;2.00;;
6145;SDS011;3104;50.348;7.620;2023-08-31T12:28:21;3.83;;;2.03;;
6145;SDS011;3104;50.348;7.620;2023-08-31T12:30:49;4.07;;;2.30;;
6145;SDS011;3104;50.348;7.620;2023-08-31T12:33:16;2.40;;;2.20;;
6145;SDS011;3104;50.348;7.620;2023-08-31T12:35:42;3.60;;;1.90;;
6145;SDS011;3104;50.348;7.620;2023-08-31T12:38:08;2.50;;;1.70;;
6145;SDS011;3104;50.348;7.620;2023-08-31T12:40:34;2.90;;;2.70;;
6145;SDS011;3104;50.348;7.620;2023-08-31T12:42:59;3.10;;;2.13;;
6145;SDS011;3104;50.348;7.620;2023-08-31T12:45:25;2.97;;;1.90;;
6145;SDS011;3104;50.348;7.620;2023-08-31T12:47:51;1.97;;;1.87;;
6145;SDS011;3104;50.348;7.620;2023-08-31T12:50:16;2.20;;;1.67;;
6145;SDS011;3104;50.348;7.620;2023-08-31T12:52:42;4.93;;;2.37;;
6145;SDS011;3104;50.348;7.620;2023-08-31T12:55:12;2.13;;;2.03;;
6145;SDS011;3104;50.348;7.620;2023-08-31T12:57:38;5.27;;;2.10;;
6145;SDS011;3104;50.348;7.620;2023-08-31T13:00:04;2.80;;;2.23;;
6145;SDS011;3104;50.348;7.620;2023-08-31T13:02:30;2.03;;;1.90;;
6145;SDS011;3104;50.348;7.620;2023-08-31T13:04:56;3.27;;;2.37;;
6145;SDS011;3104;50.348;7.620;2023-08-31T13:07:21;2.40;;;2.20;;
6145;SDS011;3104;50.348;7.620;2023-08-31T13:09:47;4.97;;;2.07;;
6145;SDS011;3104;50.348;7.620;2023-08-31T13:12:12;3.60;;;2.07;;
6145;SDS011;3104;50.348;7.620;2023-08-31T13:14:38;1.73;;;1.53;;
6145;SDS011;3104;50.348;7.620;2023-08-31T13:17:04;4.10;;;2.93;;
6145;SDS011;3104;50.348;7.620;2023-08-31T13:19:31;3.93;;;2.17;;
6145;SDS011;3104;50.348;7.620;2023-08-31T13:21:56;2.63;;;1.80;;
6145;SDS011;3104;50.348;7.620;2023-08-31T13:24:22;2.40;;;1.47;;
6145;SDS011;3104;50.348;7.620;2023-08-31T13:26:48;2.57;;;2.13;;
6145;SDS011;3104;50.348;7.620;2023-08-31T13:29:14;1.93;;;1.70;;
6145;SDS011;3104;50.348;7.620;2023-08-31T13:31:41;2.50;;;2.30;;
6145;SDS011;3104;50.348;7.620;2023-08-31T13:34:07;2.30;;;2.20;;
6145;SDS011;3104;50.348;7.620;2023-08-31T13:36:33;2.60;;;2.40;;
6145;SDS011;3104;50.348;7.620;2023-08-31T13:38:59;2.30;;;2.10;;
6145;SDS011;3104;50.348;7.620;2023-08-31T13:41:25;2.90;;;2.40;;
6145;SDS011;3104;50.348;7.620;2023-08-31T13:43:50;1.90;;;1.70;;
6145;SDS011;3104;50.348;7.620;2023-08-31T13:46:17;2.70;;;1.70;;
6145;SDS011;3104;50.348;7.620;2023-08-31T13:48:42;1.93;;;1.80;;
6145;SDS011;3104;50.348;7.620;2023-08-31T13:51:09;3.50;;;2.00;;
6145;SDS011;3104;50.348;7.620;2023-08-31T13:53:34;3.10;;;2.13;;
6145;SDS011;3104;50.348;7.620;2023-08-31T13:56:00;2.27;;;2.07;;
6145;SDS011;3104;50.348;7.620;2023-08-31T13:58:26;5.10;;;2.30;;
6145;SDS011;3104;50.348;7.620;2023-08-31T14:00:52;3.27;;;2.30;;
6145;SDS011;3104;50.348;7.620;2023-08-31T14:03:18;2.87;;;2.27;;
6145;SDS011;3104;50.348;7.620;2023-08-31T14:05:47;2.17;;;1.90;;
6145;SDS011;3104;50.348;7.620;2023-08-31T14:08:13;3.87;;;2.20;;
6145;SDS011;3104;50.348;7.620;2023-08-31T14:10:39;4.00;;;2.33;;
6145;SDS011;3104;50.348;7.620;2023-08-31T14:13:05;5.67;;;3.60;;
6145;SDS011;3104;50.348;7.620;2023-08-31T14:15:30;5.90;;;2.27;;
6145;SDS011;3104;50.348;7.620;2023-08-31T14:17:56;3.53;;;1.90;;
6145;SDS011;3104;50.348;7.620;2023-08-31T14:20:22;2.37;;;2.00;;
6145;SDS011;3104;50.348;7.620;2023-08-31T14:22:47;3.10;;;2.23;;
6145;SDS011;3104;50.348;7.620;2023-08-31T14:25:14;3.20;;;2.17;;
6145;SDS011;3104;50.348;7.620;2023-08-31T14:27:39;2.50;;;2.07;;
6145;SDS011;3104;50.348;7.620;2023-08-31T14:30:05;3.17;;;2.47;;
6145;SDS011;3104;50.348;7.620;2023-08-31T14:32:31;3.33;;;1.93;;
6145;SDS011;3104;50.348;7.620;2023-08-31T14:34:57;3.77;;;2.57;;
6145;SDS011;3104;50.348;7.620;2023-08-31T14:37:23;2.23;;;2.03;;
6145;SDS011;3104;50.348;7.620;2023-08-31T14:39:48;2.00;;;1.77;;
6145;SDS011;3104;50.348;7.620;2023-08-31T14:42:14;4.77;;;3.30;;
6145;SDS011;3104;50.348;7.620;2023-08-31T14:44:45;2.50;;;2.17;;
6145;SDS011;3104;50.348;7.620;2023-08-31T14:47:14;2.50;;;2.20;;
6145;SDS011;3104;50.348;7.620;2023-08-31T14:49:40;4.30;;;2.23;;
6145;SDS011;3104;50.348;7.620;2023-08-31T14:52:05;6.50;;;2.37;;
6145;SDS011;3104;50.348;7.620;2023-08-31T14:54:32;3.27;;;2.07;;
6145;SDS011;3104;50.348;7.620;2023-08-31T14:56:58;3.50;;;2.40;;
6145;SDS011;3104;50.348;7.620;2023-08-31T14:59:24;2.77;;;1.90;;
6145;SDS011;3104;50.348;7.620;2023-08-31T15:01:50;5.87;;;2.30;;
6145;SDS011;3104;50.348;7.620;2023-08-31T15:04:16;3.30;;;2.10;;
6145;SDS011;3104;50.348;7.620;2023-08-31T15:06:42;3.70;;;2.17;;
6145;SDS011;3104;50.348;7.620;2023-08-31T15:09:07;2.43;;;1.90;;
6145;SDS011;3104;50.348;7.620;2023-08-31T15:11:33;4.60;;;2.27;;
6145;SDS011;3104;50.348;7.620;2023-08-31T15:13:59;4.17;;;3.70;;
6145;SDS011;3104;50.348;7.620;2023-08-31T15:16:24;4.20;;;2.60;;
6145;SDS011;3104;50.348;7.620;2023-08-31T15:18:50;2.93;;;2.10;;
6145;SDS011;3104;50.348;7.620;2023-08-31T15:21:16;2.83;;;2.00;;
6145;SDS011;3104;50.348;7.620;2023-08-31T15:23:42;3.17;;;2.23;;
6145;SDS011;3104;50.348;7.620;2023-08-31T15:26:09;4.20;;;2.40;;
6145;SDS011;3104;50.348;7.620;2023-08-31T15:28:34;5.73;;;2.67;;
6145;SDS011;3104;50.348;7.620;2023-08-31T15:31:00;3.27;;;2.27;;
6145;SDS011;3104;50.348;7.620;2023-08-31T15:33:26;6.13;;;2.40;;